createdAt,value
2019-03-29T00:02:02.262Z,96.80
2019-03-29T00:04:50.924Z,97.10
2019-03-29T00:07:41.120Z,97.40
2019-03-29T00:10:30.252Z,97.50
2019-03-29T00:13:18.657Z,97.60
2019-03-29T00:16:07.031Z,97.70
2019-03-29T00:18:55.261Z,97.70
2019-03-29T00:21:43.112Z,97.80
2019-03-29T00:24:31.496Z,97.70
2019-03-29T00:27:19.969Z,97.20
2019-03-29T00:30:08.866Z,97.30
2019-03-29T00:32:57.995Z,97.20
2019-03-29T00:35:47.289Z,97.40
2019-03-29T00:38:35.749Z,97.90
2019-03-29T00:41:24.397Z,98.30
2019-03-29T00:44:13.224Z,99.00
2019-03-29T00:47:01.415Z,99.60
2019-03-29T00:49:49.597Z,99.90
2019-03-29T00:52:37.705Z,99.90
2019-03-29T00:55:25.734Z,99.90
2019-03-29T00:58:14.253Z,99.90
2019-03-29T01:01:02.583Z,99.90
2019-03-29T01:03:50.913Z,99.90
2019-03-29T01:06:39.225Z,99.90
2019-03-29T01:09:27.624Z,99.90
2019-03-29T01:12:15.748Z,99.90
2019-03-29T01:15:05.773Z,99.90
2019-03-29T01:17:54.557Z,99.90
2019-03-29T01:20:42.859Z,99.90
2019-03-29T01:23:31.018Z,99.90
2019-03-29T01:26:19.194Z,99.90
2019-03-29T01:29:07.586Z,99.90
2019-03-29T01:31:55.507Z,99.90
2019-03-29T01:34:43.895Z,99.90
2019-03-29T01:37:31.795Z,99.90
2019-03-29T01:40:20.338Z,99.90
2019-03-29T01:43:08.440Z,99.90
2019-03-29T01:45:56.427Z,99.90
2019-03-29T01:48:45.225Z,99.90
2019-03-29T01:51:34.016Z,99.90
2019-03-29T01:54:22.778Z,99.90
2019-03-29T01:57:11.084Z,99.90
2019-03-29T01:59:59.421Z,99.90
2019-03-29T02:02:48.180Z,99.90
2019-03-29T02:05:36.546Z,99.90
2019-03-29T02:08:35.292Z,99.90
2019-03-29T02:11:14.931Z,99.90
2019-03-29T02:14:03.034Z,99.90
2019-03-29T02:16:51.303Z,99.90
2019-03-29T02:19:39.610Z,99.90
2019-03-29T02:22:27.998Z,99.90
2019-03-29T02:25:16.421Z,99.90
2019-03-29T02:28:04.964Z,97.10
2019-03-29T02:30:53.159Z,95.70
2019-03-29T02:33:42.206Z,96.40
2019-03-29T02:36:30.724Z,96.30
2019-03-29T02:39:19.238Z,96.70
2019-03-29T02:42:07.512Z,99.00
2019-03-29T02:44:55.926Z,98.30
2019-03-29T02:47:44.070Z,97.90
2019-03-29T02:50:32.015Z,98.40
2019-03-29T02:53:20.285Z,98.20
2019-03-29T02:56:08.770Z,98.20
2019-03-29T02:58:57.124Z,97.70
2019-03-29T03:01:45.551Z,97.90
2019-03-29T03:04:33.647Z,98.10
2019-03-29T03:07:21.689Z,97.70
2019-03-29T03:10:10.993Z,97.30
2019-03-29T03:12:59.933Z,97.10
2019-03-29T03:15:48.236Z,96.40
2019-03-29T03:18:36.737Z,96.50
2019-03-29T03:21:24.943Z,96.50
2019-03-29T03:24:13.443Z,96.60
2019-03-29T03:27:01.835Z,96.20
2019-03-29T03:29:50.144Z,96.30
2019-03-29T03:32:38.171Z,96.50
2019-03-29T03:35:26.647Z,96.60
2019-03-29T03:38:15.106Z,97.00
2019-03-29T03:41:03.921Z,97.20
2019-03-29T03:43:52.051Z,97.20
2019-03-29T03:46:40.530Z,97.00
2019-03-29T03:49:28.882Z,97.00
2019-03-29T03:52:16.927Z,97.00
2019-03-29T03:55:05.908Z,96.90
2019-03-29T03:57:57.641Z,96.80
2019-03-29T04:00:54.024Z,96.70
2019-03-29T04:03:42.498Z,96.70
2019-03-29T04:06:30.441Z,96.90
2019-03-29T04:09:18.329Z,97.00
2019-03-29T04:12:07.321Z,97.50
2019-03-29T04:14:55.624Z,97.80
2019-03-29T04:17:44.008Z,97.80
2019-03-29T04:20:31.947Z,97.60
2019-03-29T04:23:20.710Z,97.60
2019-03-29T04:26:09.288Z,97.20
2019-03-29T04:29:04.792Z,96.90
2019-03-29T04:31:48.035Z,96.70
2019-03-29T04:34:36.238Z,96.70
2019-03-29T04:37:24.310Z,96.60
2019-03-29T04:40:12.499Z,96.50
2019-03-29T04:43:00.695Z,96.40
2019-03-29T04:45:48.814Z,96.50
2019-03-29T04:48:37.750Z,96.80
2019-03-29T04:51:26.145Z,96.60
2019-03-29T04:54:14.387Z,96.50
2019-03-29T04:57:02.972Z,96.60
2019-03-29T04:59:51.905Z,96.80
2019-03-29T05:02:40.326Z,97.10
2019-03-29T05:05:28.235Z,97.30
2019-03-29T05:08:16.546Z,97.20
2019-03-29T05:11:04.875Z,97.50
2019-03-29T05:13:53.123Z,98.20
2019-03-29T05:16:41.214Z,97.60
2019-03-29T05:19:29.814Z,97.40
2019-03-29T05:22:18.461Z,97.30
2019-03-29T05:25:07.573Z,97.20
2019-03-29T05:27:56.827Z,97.10
2019-03-29T05:30:45.004Z,97.20
2019-03-29T05:33:32.798Z,97.30
2019-03-29T05:36:20.887Z,97.20
2019-03-29T05:39:09.353Z,97.50
2019-03-29T05:41:57.932Z,97.60
2019-03-29T05:44:46.471Z,97.70
2019-03-29T05:47:34.408Z,98.80
2019-03-29T05:50:22.749Z,99.90
2019-03-29T05:53:11.186Z,99.90
2019-03-29T05:55:59.622Z,99.90
2019-03-29T05:58:47.899Z,99.90
2019-03-29T06:01:36.128Z,99.90
2019-03-29T06:04:24.403Z,99.90
2019-03-29T06:07:12.674Z,99.90
2019-03-29T06:10:00.776Z,99.90
2019-03-29T06:12:49.024Z,99.90
2019-03-29T06:15:37.271Z,99.90
2019-03-29T06:18:25.976Z,99.90
2019-03-29T06:21:14.017Z,99.90
2019-03-29T06:24:02.299Z,99.90
2019-03-29T06:26:50.344Z,99.90
2019-03-29T06:29:38.599Z,99.90
2019-03-29T06:32:27.398Z,99.90
2019-03-29T06:35:15.441Z,99.90
2019-03-29T06:38:05.781Z,99.90
2019-03-29T06:41:02.931Z,99.90
2019-03-29T06:43:44.383Z,99.90
2019-03-29T06:46:33.074Z,99.90
2019-03-29T06:49:21.392Z,99.90
2019-03-29T06:52:10.030Z,99.90
2019-03-29T06:54:58.618Z,99.90
2019-03-29T06:57:47.565Z,99.90
2019-03-29T07:00:36.204Z,99.90
2019-03-29T07:03:24.255Z,99.90
2019-03-29T07:06:12.737Z,99.90
2019-03-29T07:09:00.652Z,99.90
2019-03-29T07:11:49.089Z,99.90
2019-03-29T07:14:37.083Z,99.90
2019-03-29T07:17:25.196Z,99.90
2019-03-29T07:20:13.440Z,99.90
2019-03-29T07:23:01.842Z,99.90
2019-03-29T07:25:50.390Z,99.90
2019-03-29T07:28:38.558Z,99.90
2019-03-29T07:31:27.122Z,99.90
2019-03-29T07:34:15.361Z,99.20
2019-03-29T07:37:05.782Z,98.90
2019-03-29T07:39:54.046Z,98.30
2019-03-29T07:42:42.517Z,97.60
2019-03-29T07:45:30.794Z,97.40
2019-03-29T07:48:19.182Z,96.60
2019-03-29T07:51:07.347Z,95.70
2019-03-29T07:53:55.433Z,95.40
2019-03-29T07:56:43.620Z,94.80
2019-03-29T07:59:31.848Z,93.90
2019-03-29T08:02:20.468Z,94.00
2019-03-29T08:05:08.805Z,93.30
2019-03-29T08:07:57.029Z,93.30
2019-03-29T08:10:45.575Z,92.20
2019-03-29T08:13:33.473Z,91.00
2019-03-29T08:16:22.180Z,90.50
2019-03-29T08:19:10.652Z,91.20
2019-03-29T08:21:58.494Z,91.30
2019-03-29T08:24:46.706Z,91.30
2019-03-29T08:27:35.118Z,91.30
2019-03-29T08:30:23.647Z,92.30
2019-03-29T08:33:11.343Z,96.00
2019-03-29T08:35:59.785Z,98.00
2019-03-29T08:38:47.820Z,95.20
2019-03-29T08:41:36.080Z,95.40
2019-03-29T08:44:24.517Z,94.70
2019-03-29T08:47:12.899Z,93.00
2019-03-29T08:50:01.458Z,91.00
2019-03-29T08:52:49.278Z,90.90
2019-03-29T08:55:45.824Z,89.90
2019-03-29T08:58:26.985Z,89.90
2019-03-29T09:01:19.121Z,89.40
2019-03-29T09:04:06.270Z,90.40
2019-03-29T09:06:54.891Z,90.30
2019-03-29T09:09:46.231Z,90.80
2019-03-29T09:12:33.299Z,90.10
2019-03-29T09:15:22.010Z,91.50
2019-03-29T09:18:10.129Z,92.10
2019-03-29T09:20:58.805Z,94.40
2019-03-29T09:23:47.212Z,91.50
2019-03-29T09:26:35.517Z,88.40
2019-03-29T09:29:23.650Z,86.90
2019-03-29T09:32:12.112Z,86.10
2019-03-29T09:35:00.416Z,70.70
2019-03-29T09:37:48.732Z,68.90
2019-03-29T09:40:36.755Z,68.00
2019-03-29T09:43:26.810Z,76.20
2019-03-29T09:46:14.951Z,91.80
2019-03-29T09:51:50.274Z,74.80
2019-03-29T09:54:38.530Z,59.00
2019-03-29T09:57:37.403Z,59.50
2019-03-29T10:00:23.003Z,82.10
2019-03-29T10:03:07.873Z,86.50
2019-03-29T10:05:56.274Z,57.70
2019-03-29T10:08:44.160Z,68.30
2019-03-29T10:11:32.799Z,65.50
2019-03-29T10:14:21.131Z,66.10
2019-03-29T10:17:09.542Z,60.40
2019-03-29T10:19:57.741Z,60.40
2019-03-29T10:22:46.289Z,80.80
2019-03-29T10:25:34.438Z,81.20
2019-03-29T10:28:22.965Z,78.50
2019-03-29T10:31:11.060Z,78.90
2019-03-29T10:33:59.429Z,79.50
2019-03-29T10:36:47.523Z,81.40
2019-03-29T10:39:36.079Z,82.10
2019-03-29T10:42:24.416Z,84.10
2019-03-29T10:45:12.826Z,85.80
2019-03-29T10:48:00.793Z,87.90
2019-03-29T11:27:22.358Z,88.80
2019-03-29T11:30:09.455Z,82.90
2019-03-29T11:32:58.289Z,76.70
2019-03-29T11:35:46.569Z,72.60
2019-03-29T11:38:34.969Z,72.80
2019-03-29T11:41:23.469Z,76.00
2019-03-29T11:44:12.159Z,78.00
2019-03-29T11:47:00.289Z,78.80
2019-03-29T11:49:48.415Z,81.50
2019-03-29T11:52:36.268Z,84.00
2019-03-29T11:55:24.929Z,84.60
2019-03-29T11:58:13.704Z,85.50
2019-03-29T12:01:05.303Z,83.10
2019-03-29T12:06:40.945Z,82.70
2019-03-29T12:12:16.653Z,86.50
2019-03-29T12:15:05.184Z,82.20
2019-03-29T12:17:53.368Z,74.90
2019-03-29T12:20:42.205Z,65.80
2019-03-29T12:23:31.053Z,59.30
2019-03-29T12:26:19.123Z,59.40
2019-03-29T12:29:07.621Z,63.00
2019-03-29T12:31:56.248Z,59.30
2019-03-29T12:34:44.672Z,58.10
2019-03-29T12:37:33.490Z,60.00
2019-03-29T12:40:21.717Z,59.70
2019-03-29T12:43:12.592Z,60.40
2019-03-29T12:46:00.244Z,60.00
2019-03-29T12:48:50.240Z,59.70
2019-03-29T12:51:38.183Z,61.10
2019-03-29T12:54:26.908Z,61.70
2019-03-29T12:57:15.370Z,59.10
2019-03-29T13:00:04.460Z,59.70
2019-03-29T13:02:54.329Z,63.60
2019-03-29T13:05:42.786Z,64.70
2019-03-29T13:08:31.019Z,59.80
2019-03-29T13:11:19.638Z,59.50
2019-03-29T13:14:10.441Z,58.90
2019-03-29T13:16:58.105Z,57.70
2019-03-29T13:19:46.085Z,58.70
2019-03-29T13:22:35.012Z,58.00
2019-03-29T13:25:23.371Z,58.70
2019-03-29T13:28:12.023Z,56.90
2019-03-29T13:31:00.432Z,59.80
2019-03-29T13:33:49.226Z,60.00
2019-03-29T13:36:37.324Z,58.20
2019-03-29T13:39:25.675Z,57.70
2019-03-29T13:42:14.078Z,57.80
2019-03-29T13:45:02.415Z,57.60
2019-03-29T13:47:50.668Z,58.80
2019-03-29T13:50:38.953Z,57.10
2019-03-29T13:53:27.619Z,57.10
2019-03-29T13:56:15.751Z,58.40
2019-03-29T13:59:05.284Z,59.20
2019-03-29T14:01:54.109Z,60.00
2019-03-29T14:04:42.472Z,57.90
2019-03-29T14:07:30.259Z,58.90
2019-03-29T14:10:19.225Z,59.00
2019-03-29T14:13:07.939Z,58.40
2019-03-29T14:15:56.030Z,59.70
2019-03-29T14:18:44.215Z,58.20
2019-03-29T14:21:32.461Z,57.60
2019-03-29T14:24:21.221Z,57.20
2019-03-29T14:27:09.833Z,57.80
2019-03-29T14:30:04.275Z,58.20
2019-03-29T14:32:47.816Z,59.10
2019-03-29T14:35:36.411Z,57.80
2019-03-29T14:38:24.849Z,57.30
2019-03-29T14:41:13.234Z,60.10
2019-03-29T14:44:01.085Z,61.10
2019-03-29T14:46:49.826Z,77.20
2019-03-29T14:49:37.573Z,64.10
2019-03-29T14:58:01.827Z,71.40
2019-03-29T15:00:49.937Z,69.10
2019-03-29T15:03:38.459Z,66.80
2019-03-29T15:06:26.222Z,67.50
2019-03-29T15:09:14.386Z,66.40
2019-03-29T15:12:02.654Z,65.80
2019-03-29T15:14:50.730Z,67.20
2019-03-29T15:17:38.608Z,67.90
2019-03-29T15:20:26.783Z,67.10
2019-03-29T15:23:15.251Z,65.60
2019-03-29T15:26:04.086Z,66.00
2019-03-29T15:28:52.263Z,66.60
2019-03-29T15:31:40.345Z,68.70
2019-03-29T15:34:28.247Z,68.30
2019-03-29T15:37:16.607Z,69.00
2019-03-29T15:40:05.480Z,69.00
2019-03-29T15:42:53.892Z,68.20
2019-03-29T15:45:42.100Z,67.70
2019-03-29T15:48:30.610Z,67.90
2019-03-29T15:51:19.418Z,67.80
2019-03-29T15:54:07.877Z,69.00
2019-03-29T15:56:55.766Z,69.10
2019-03-29T15:59:43.694Z,69.50
2019-03-29T16:02:31.656Z,69.40
2019-03-29T16:05:19.703Z,69.80
2019-03-29T16:08:08.200Z,70.50
2019-03-29T16:10:56.345Z,71.40
2019-03-29T16:13:44.287Z,71.60
2019-03-29T16:16:32.977Z,71.30
2019-03-29T16:19:21.772Z,71.10
2019-03-29T16:22:10.009Z,71.80
2019-03-29T16:24:58.969Z,72.10
2019-03-29T16:27:47.062Z,72.90
2019-03-29T16:30:35.861Z,73.50
2019-03-29T16:33:24.122Z,74.80
2019-03-29T16:36:12.650Z,74.50
2019-03-29T16:39:00.832Z,74.10
2019-03-29T16:41:49.239Z,73.70
2019-03-29T16:44:37.591Z,73.50
2019-03-29T16:47:26.266Z,73.60
2019-03-29T16:50:15.832Z,78.70
2019-03-29T16:53:06.659Z,76.30
2019-03-29T16:55:55.936Z,76.60
2019-03-29T16:58:44.424Z,77.00
2019-03-29T17:01:32.640Z,77.40
2019-03-29T17:04:20.823Z,77.10
2019-03-29T17:07:10.513Z,77.60
2019-03-29T17:09:59.151Z,77.70
2019-03-29T17:12:57.255Z,77.90
2019-03-29T17:15:45.890Z,78.10
2019-03-29T17:18:34.293Z,78.60
2019-03-29T17:21:22.351Z,78.90
2019-03-29T17:24:10.654Z,79.80
2019-03-29T17:26:59.159Z,80.20
2019-03-29T17:29:47.649Z,80.40
2019-03-29T17:32:36.188Z,80.40
2019-03-29T17:35:24.615Z,80.60
2019-03-29T17:38:12.847Z,81.30
2019-03-29T17:41:01.340Z,81.50
2019-03-29T17:43:49.774Z,82.10
2019-03-29T17:46:38.040Z,82.30
2019-03-29T17:49:26.439Z,82.60
2019-03-29T17:52:14.316Z,82.80
2019-03-29T17:55:02.639Z,83.00
2019-03-29T17:57:50.926Z,83.30
2019-03-29T18:00:39.139Z,84.00
2019-03-29T18:03:27.799Z,84.40
2019-03-29T18:06:16.137Z,85.50
2019-03-29T18:09:05.755Z,86.30
2019-03-29T18:11:54.064Z,79.60
2019-03-29T18:14:42.394Z,78.80
2019-03-29T18:17:30.477Z,79.10
2019-03-29T18:20:19.175Z,78.90
2019-03-29T18:23:07.886Z,79.50
2019-03-29T18:25:56.613Z,76.30
2019-03-29T18:28:44.682Z,80.10
2019-03-29T18:31:32.926Z,79.80
2019-03-29T18:34:21.474Z,80.20
2019-03-29T18:37:10.900Z,80.30
2019-03-29T18:40:04.504Z,80.00
2019-03-29T18:42:52.915Z,80.50
2019-03-29T18:45:41.797Z,73.50
2019-03-29T18:48:30.364Z,74.80
2019-03-29T18:51:18.609Z,75.50
2019-03-29T18:54:07.179Z,75.30
2019-03-29T18:56:54.918Z,75.30
2019-03-29T18:59:42.695Z,76.10
2019-03-29T19:02:30.589Z,76.60
2019-03-29T19:05:25.470Z,77.40
2019-03-29T19:08:13.598Z,78.10
2019-03-29T19:11:01.955Z,79.70
2019-03-29T19:13:50.183Z,80.50
2019-03-29T19:16:38.450Z,84.30
2019-03-29T19:19:27.019Z,84.80
2019-03-29T19:22:15.205Z,85.10
2019-03-29T19:25:03.757Z,85.70
2019-03-29T19:27:52.128Z,86.10
2019-03-29T19:30:40.552Z,81.30
2019-03-29T19:33:28.846Z,82.50
2019-03-29T19:36:17.396Z,82.90
2019-03-29T19:39:07.068Z,84.00
2019-03-29T19:41:55.403Z,84.60
2019-03-29T19:44:43.855Z,85.20
2019-03-29T19:47:32.687Z,85.60
2019-03-29T19:50:21.137Z,87.30
2019-03-29T19:53:09.355Z,87.90
2019-03-29T19:55:57.939Z,88.00
2019-03-29T19:58:46.662Z,87.90
2019-03-29T20:01:35.350Z,88.30
2019-03-29T20:04:23.780Z,89.10
2019-03-29T20:07:11.522Z,90.00
2019-03-29T20:09:59.676Z,90.20
2019-03-29T20:12:47.821Z,91.30
2019-03-29T20:15:36.350Z,90.40
2019-03-29T20:18:24.596Z,90.70
2019-03-29T20:21:12.659Z,91.70
2019-03-29T20:24:00.960Z,91.00
2019-03-29T20:26:49.098Z,91.70
2019-03-29T20:29:37.367Z,92.30
2019-03-29T20:32:25.417Z,92.50
2019-03-29T20:35:13.262Z,92.70
2019-03-29T20:38:01.835Z,92.90
2019-03-29T20:40:50.370Z,93.30
2019-03-29T20:43:38.809Z,94.70
2019-03-29T20:46:27.242Z,95.20
2019-03-29T20:49:15.819Z,98.20
2019-03-29T20:52:05.270Z,90.30
2019-03-29T20:54:53.332Z,90.70
2019-03-29T20:57:41.490Z,91.10
2019-03-29T21:00:29.742Z,91.10
2019-03-29T21:03:18.317Z,91.10
2019-03-29T21:06:06.572Z,91.30
2019-03-29T21:08:54.348Z,91.40
2019-03-29T21:11:42.552Z,91.50
2019-03-29T21:14:31.520Z,91.40
2019-03-29T21:17:19.896Z,91.90
2019-03-29T21:20:09.077Z,92.30
2019-03-29T21:22:56.971Z,92.50
2019-03-29T21:25:45.324Z,92.70
2019-03-29T21:28:35.023Z,94.10
2019-03-29T21:31:23.696Z,94.90
2019-03-29T21:34:12.006Z,96.70
2019-03-29T21:36:59.774Z,99.10
2019-03-29T21:39:47.688Z,98.80
2019-03-29T21:42:36.215Z,98.90
2019-03-29T21:45:29.066Z,98.90
2019-03-29T21:48:28.208Z,98.50
2019-03-29T21:51:04.029Z,98.70
2019-03-29T21:53:51.878Z,99.50
2019-03-29T21:56:40.335Z,99.90
2019-03-29T21:59:28.741Z,99.90
2019-03-29T22:02:17.149Z,99.90
2019-03-29T22:05:10.050Z,99.90
2019-03-29T22:07:56.588Z,99.90
2019-03-29T22:10:45.137Z,99.20
2019-03-29T22:13:33.941Z,99.70
2019-03-29T22:16:23.471Z,99.90
2019-03-29T22:19:12.113Z,99.90
2019-03-29T22:22:01.293Z,99.90
2019-03-29T22:24:49.989Z,99.90
2019-03-29T22:27:38.742Z,99.90
2019-03-29T22:30:26.837Z,99.90
2019-03-29T22:33:15.030Z,99.90
2019-03-29T22:36:03.608Z,99.90
2019-03-29T22:38:51.730Z,99.90
2019-03-29T22:41:40.104Z,99.90
2019-03-29T22:44:28.373Z,99.90
2019-03-29T22:47:16.395Z,99.90
2019-03-29T22:50:05.121Z,99.90
2019-03-29T22:52:54.669Z,99.90
2019-03-29T22:55:42.678Z,99.90
2019-03-29T22:58:30.912Z,99.90
2019-03-29T23:01:21.151Z,99.90
2019-03-29T23:04:09.269Z,99.90
2019-03-29T23:06:57.921Z,99.90
2019-03-29T23:09:46.091Z,99.90
2019-03-29T23:12:33.991Z,99.90
2019-03-29T23:15:22.333Z,99.90
2019-03-29T23:18:10.917Z,99.90
2019-03-29T23:21:00.007Z,99.90
2019-03-29T23:23:50.335Z,99.90
2019-03-29T23:26:38.581Z,99.90
2019-03-29T23:29:27.982Z,99.90
2019-03-29T23:32:16.180Z,99.90
2019-03-29T23:35:05.013Z,99.90
2019-03-29T23:37:53.178Z,99.90
2019-03-29T23:40:41.364Z,99.90
2019-03-29T23:43:29.562Z,99.90
2019-03-29T23:46:17.540Z,99.90
2019-03-29T23:49:20.001Z,99.90
2019-03-29T23:51:55.735Z,99.90
2019-03-29T23:54:44.291Z,99.90
2019-03-29T23:57:32.384Z,99.90
